sensor_id;sensor_type;location;lat;lon;timestamp;temperature;humidity
30174;DHT22;16985;50.814;8.530;2022-08-01T00:01:14;21.40;94.30
30174;DHT22;16985;50.814;8.530;2022-08-01T00:03:40;21.50;95.10
30174;DHT22;16985;50.814;8.530;2022-08-01T00:06:06;21.40;96.00
30174;DHT22;16985;50.814;8.530;2022-08-01T00:08:31;21.30;96.60
30174;DHT22;16985;50.814;8.530;2022-08-01T00:10:57;21.30;96.90
30174;DHT22;16985;50.814;8.530;2022-08-01T00:13:23;21.30;97.00
30174;DHT22;16985;50.814;8.530;2022-08-01T00:15:49;21.30;97.00
30174;DHT22;16985;50.814;8.530;2022-08-01T00:18:14;21.30;96.90
30174;DHT22;16985;50.814;8.530;2022-08-01T00:20:40;21.20;96.20
30174;DHT22;16985;50.814;8.530;2022-08-01T00:23:06;21.20;96.20
30174;DHT22;16985;50.814;8.530;2022-08-01T00:25:32;21.20;96.00
30174;DHT22;16985;50.814;8.530;2022-08-01T00:27:57;21.20;95.90
30174;DHT22;16985;50.814;8.530;2022-08-01T00:30:23;21.20;95.80
30174;DHT22;16985;50.814;8.530;2022-08-01T00:32:49;21.20;97.40
30174;DHT22;16985;50.814;8.530;2022-08-01T00:35:15;21.10;97.80
30174;DHT22;16985;50.814;8.530;2022-08-01T00:37:41;21.10;97.10
30174;DHT22;16985;50.814;8.530;2022-08-01T00:40:07;21.10;96.60
30174;DHT22;16985;50.814;8.530;2022-08-01T00:42:33;21.00;97.10
30174;DHT22;16985;50.814;8.530;2022-08-01T00:44:59;21.00;97.60
30174;DHT22;16985;50.814;8.530;2022-08-01T00:47:25;20.90;98.00
30174;DHT22;16985;50.814;8.530;2022-08-01T00:49:51;20.90;98.00
30174;DHT22;16985;50.814;8.530;2022-08-01T00:52:17;20.80;98.20
30174;DHT22;16985;50.814;8.530;2022-08-01T00:54:43;20.80;98.30
30174;DHT22;16985;50.814;8.530;2022-08-01T00:57:09;20.70;99.20
30174;DHT22;16985;50.814;8.530;2022-08-01T00:59:36;20.70;99.10
30174;DHT22;16985;50.814;8.530;2022-08-01T01:02:02;20.70;99.90
30174;DHT22;16985;50.814;8.530;2022-08-01T01:04:27;20.70;99.90
30174;DHT22;16985;50.814;8.530;2022-08-01T01:10:03;20.60;99.90
30174;DHT22;16985;50.814;8.530;2022-08-01T01:12:43;20.60;99.40
30174;DHT22;16985;50.814;8.530;2022-08-01T01:15:17;20.60;99.80
30174;DHT22;16985;50.814;8.530;2022-08-01T01:20:41;20.50;99.90
30174;DHT22;16985;50.814;8.530;2022-08-01T01:23:28;20.50;99.90
30174;DHT22;16985;50.814;8.530;2022-08-01T01:26:37;20.50;99.90
30174;DHT22;16985;50.814;8.530;2022-08-01T01:32:32;20.50;99.90
30174;DHT22;16985;50.814;8.530;2022-08-01T01:35:06;20.50;99.90
30174;DHT22;16985;50.814;8.530;2022-08-01T01:37:35;20.50;99.90
30174;DHT22;16985;50.814;8.530;2022-08-01T01:40:05;20.50;99.90
30174;DHT22;16985;50.814;8.530;2022-08-01T01:42:33;20.40;99.90
30174;DHT22;16985;50.814;8.530;2022-08-01T01:45:04;20.50;99.90
30174;DHT22;16985;50.814;8.530;2022-08-01T01:47:31;20.50;99.90
30174;DHT22;16985;50.814;8.530;2022-08-01T01:49:59;20.40;99.90
30174;DHT22;16985;50.814;8.530;2022-08-01T01:52:26;20.30;99.90
30174;DHT22;16985;50.814;8.530;2022-08-01T01:54:54;20.40;99.90
30174;DHT22;16985;50.814;8.530;2022-08-01T01:57:21;20.40;99.90
30174;DHT22;16985;50.814;8.530;2022-08-01T01:59:49;20.40;99.90
30174;DHT22;16985;50.814;8.530;2022-08-01T02:02:17;20.40;99.90
30174;DHT22;16985;50.814;8.530;2022-08-01T02:04:45;20.30;99.90
30174;DHT22;16985;50.814;8.530;2022-08-01T02:07:21;20.40;99.90
30174;DHT22;16985;50.814;8.530;2022-08-01T02:09:48;20.40;99.90
30174;DHT22;16985;50.814;8.530;2022-08-01T02:12:15;20.40;99.90
30174;DHT22;16985;50.814;8.530;2022-08-01T02:14:42;20.30;99.90
30174;DHT22;16985;50.814;8.530;2022-08-01T02:17:11;20.30;99.90
30174;DHT22;16985;50.814;8.530;2022-08-01T02:19:39;20.30;99.90
30174;DHT22;16985;50.814;8.530;2022-08-01T02:25:44;20.30;99.90
30174;DHT22;16985;50.814;8.530;2022-08-01T02:28:17;20.30;99.90
30174;DHT22;16985;50.814;8.530;2022-08-01T02:30:48;20.30;99.90
30174;DHT22;16985;50.814;8.530;2022-08-01T02:35:54;20.30;99.90
30174;DHT22;16985;50.814;8.530;2022-08-01T02:38:24;20.30;99.90
30174;DHT22;16985;50.814;8.530;2022-08-01T02:40:53;20.30;99.90
30174;DHT22;16985;50.814;8.530;2022-08-01T02:43:25;20.20;99.90
30174;DHT22;16985;50.814;8.530;2022-08-01T02:45:54;20.20;99.90
30174;DHT22;16985;50.814;8.530;2022-08-01T02:48:25;20.10;99.90
30174;DHT22;16985;50.814;8.530;2022-08-01T02:50:54;20.10;99.90
30174;DHT22;16985;50.814;8.530;2022-08-01T02:53:23;20.10;99.90
30174;DHT22;16985;50.814;8.530;2022-08-01T02:55:51;20.10;99.90
30174;DHT22;16985;50.814;8.530;2022-08-01T02:58:19;20.10;99.90
30174;DHT22;16985;50.814;8.530;2022-08-01T03:00:47;20.10;99.90
30174;DHT22;16985;50.814;8.530;2022-08-01T03:03:14;20.10;99.90
30174;DHT22;16985;50.814;8.530;2022-08-01T03:05:41;20.00;99.90
30174;DHT22;16985;50.814;8.530;2022-08-01T03:08:09;20.00;99.90
30174;DHT22;16985;50.814;8.530;2022-08-01T03:10:37;20.00;99.90
30174;DHT22;16985;50.814;8.530;2022-08-01T03:13:06;20.00;99.90
30174;DHT22;16985;50.814;8.530;2022-08-01T03:15:35;20.00;99.90
30174;DHT22;16985;50.814;8.530;2022-08-01T03:18:02;19.90;99.90
30174;DHT22;16985;50.814;8.530;2022-08-01T03:20:33;19.90;99.90
30174;DHT22;16985;50.814;8.530;2022-08-01T03:23:03;19.90;99.90
30174;DHT22;16985;50.814;8.530;2022-08-01T03:25:32;19.90;99.90
30174;DHT22;16985;50.814;8.530;2022-08-01T03:28:02;19.90;99.90
30174;DHT22;16985;50.814;8.530;2022-08-01T03:30:29;19.90;99.90
30174;DHT22;16985;50.814;8.530;2022-08-01T03:32:57;19.90;99.90
30174;DHT22;16985;50.814;8.530;2022-08-01T03:35:26;19.90;99.90
30174;DHT22;16985;50.814;8.530;2022-08-01T03:37:55;19.90;99.90
30174;DHT22;16985;50.814;8.530;2022-08-01T03:40:25;19.80;99.90
30174;DHT22;16985;50.814;8.530;2022-08-01T03:43:04;19.80;99.90
30174;DHT22;16985;50.814;8.530;2022-08-01T03:45:39;19.80;99.90
30174;DHT22;16985;50.814;8.530;2022-08-01T03:48:16;19.80;99.90
30174;DHT22;16985;50.814;8.530;2022-08-01T03:50:46;19.80;99.90
30174;DHT22;16985;50.814;8.530;2022-08-01T03:53:14;19.80;99.90
30174;DHT22;16985;50.814;8.530;2022-08-01T03:55:42;19.80;99.90
30174;DHT22;16985;50.814;8.530;2022-08-01T03:58:09;19.80;99.90
30174;DHT22;16985;50.814;8.530;2022-08-01T04:00:39;19.90;99.90
30174;DHT22;16985;50.814;8.530;2022-08-01T04:03:07;19.80;99.90
30174;DHT22;16985;50.814;8.530;2022-08-01T04:05:34;19.80;99.90
30174;DHT22;16985;50.814;8.530;2022-08-01T04:08:00;19.80;99.90
30174;DHT22;16985;50.814;8.530;2022-08-01T04:10:28;19.80;99.90
30174;DHT22;16985;50.814;8.530;2022-08-01T04:12:55;19.80;99.90
30174;DHT22;16985;50.814;8.530;2022-08-01T04:15:20;19.80;99.90
30174;DHT22;16985;50.814;8.530;2022-08-01T04:17:47;19.80;99.90
30174;DHT22;16985;50.814;8.530;2022-08-01T04:20:13;19.80;99.90
30174;DHT22;16985;50.814;8.530;2022-08-01T04:22:39;19.80;99.90
30174;DHT22;16985;50.814;8.530;2022-08-01T04:25:19;19.80;99.90
30174;DHT22;16985;50.814;8.530;2022-08-01T04:27:56;19.80;99.90
30174;DHT22;16985;50.814;8.530;2022-08-01T04:30:34;19.80;99.90
30174;DHT22;16985;50.814;8.530;2022-08-01T04:33:03;19.80;99.90
30174;DHT22;16985;50.814;8.530;2022-08-01T04:35:32;19.80;99.90
30174;DHT22;16985;50.814;8.530;2022-08-01T04:37:58;19.80;99.90
30174;DHT22;16985;50.814;8.530;2022-08-01T04:40:27;19.80;99.90
30174;DHT22;16985;50.814;8.530;2022-08-01T04:42:53;19.80;99.90
30174;DHT22;16985;50.814;8.530;2022-08-01T04:45:20;19.80;99.90
30174;DHT22;16985;50.814;8.530;2022-08-01T04:47:46;19.80;99.90
30174;DHT22;16985;50.814;8.530;2022-08-01T04:50:13;19.80;99.90
30174;DHT22;16985;50.814;8.530;2022-08-01T04:52:39;19.80;99.90
30174;DHT22;16985;50.814;8.530;2022-08-01T04:55:07;19.80;99.90
30174;DHT22;16985;50.814;8.530;2022-08-01T04:57:39;19.80;99.90
30174;DHT22;16985;50.814;8.530;2022-08-01T05:00:07;19.70;99.90
30174;DHT22;16985;50.814;8.530;2022-08-01T05:02:33;19.70;99.90
30174;DHT22;16985;50.814;8.530;2022-08-01T05:04:59;19.70;99.90
30174;DHT22;16985;50.814;8.530;2022-08-01T05:07:25;19.70;99.90
30174;DHT22;16985;50.814;8.530;2022-08-01T05:09:51;19.80;99.90
30174;DHT22;16985;50.814;8.530;2022-08-01T05:12:17;19.70;99.90
30174;DHT22;16985;50.814;8.530;2022-08-01T05:14:43;19.70;99.90
30174;DHT22;16985;50.814;8.530;2022-08-01T05:17:09;19.70;99.90
30174;DHT22;16985;50.814;8.530;2022-08-01T05:19:36;19.80;99.90
30174;DHT22;16985;50.814;8.530;2022-08-01T05:22:05;19.80;99.90
30174;DHT22;16985;50.814;8.530;2022-08-01T05:24:34;19.80;99.90
30174;DHT22;16985;50.814;8.530;2022-08-01T05:27:01;19.80;99.90
30174;DHT22;16985;50.814;8.530;2022-08-01T05:29:28;19.80;99.90
30174;DHT22;16985;50.814;8.530;2022-08-01T05:31:54;19.80;99.90
30174;DHT22;16985;50.814;8.530;2022-08-01T05:34:20;19.90;99.90
30174;DHT22;16985;50.814;8.530;2022-08-01T05:36:46;19.90;99.90
30174;DHT22;16985;50.814;8.530;2022-08-01T05:39:13;19.90;99.90
30174;DHT22;16985;50.814;8.530;2022-08-01T05:41:39;19.90;99.90
30174;DHT22;16985;50.814;8.530;2022-08-01T05:44:06;19.90;99.90
30174;DHT22;16985;50.814;8.530;2022-08-01T05:46:32;19.90;99.90
30174;DHT22;16985;50.814;8.530;2022-08-01T05:49:00;19.90;99.90
30174;DHT22;16985;50.814;8.530;2022-08-01T05:51:26;19.90;99.90
30174;DHT22;16985;50.814;8.530;2022-08-01T05:53:53;19.90;99.90
30174;DHT22;16985;50.814;8.530;2022-08-01T05:56:19;19.90;99.90
30174;DHT22;16985;50.814;8.530;2022-08-01T05:58:46;19.90;99.90
30174;DHT22;16985;50.814;8.530;2022-08-01T06:01:13;20.00;99.90
30174;DHT22;16985;50.814;8.530;2022-08-01T06:03:39;20.00;99.90
30174;DHT22;16985;50.814;8.530;2022-08-01T06:06:05;20.00;99.90
30174;DHT22;16985;50.814;8.530;2022-08-01T06:08:31;20.00;99.90
30174;DHT22;16985;50.814;8.530;2022-08-01T06:10:57;20.00;99.90
30174;DHT22;16985;50.814;8.530;2022-08-01T06:13:24;20.00;99.90
30174;DHT22;16985;50.814;8.530;2022-08-01T06:15:50;20.00;99.90
30174;DHT22;16985;50.814;8.530;2022-08-01T06:18:16;20.10;99.90
30174;DHT22;16985;50.814;8.530;2022-08-01T06:20:42;20.10;99.90
30174;DHT22;16985;50.814;8.530;2022-08-01T06:23:09;20.10;99.90
30174;DHT22;16985;50.814;8.530;2022-08-01T06:25:35;20.10;99.90
30174;DHT22;16985;50.814;8.530;2022-08-01T06:28:01;20.20;99.90
30174;DHT22;16985;50.814;8.530;2022-08-01T06:30:27;20.20;99.90
30174;DHT22;16985;50.814;8.530;2022-08-01T06:32:53;20.20;99.90
30174;DHT22;16985;50.814;8.530;2022-08-01T06:35:21;20.20;99.90
30174;DHT22;16985;50.814;8.530;2022-08-01T06:37:47;20.30;99.90
30174;DHT22;16985;50.814;8.530;2022-08-01T06:40:14;20.30;99.90
30174;DHT22;16985;50.814;8.530;2022-08-01T06:42:40;20.30;99.90
30174;DHT22;16985;50.814;8.530;2022-08-01T06:45:08;20.30;99.90
30174;DHT22;16985;50.814;8.530;2022-08-01T06:47:36;20.40;99.90
30174;DHT22;16985;50.814;8.530;2022-08-01T06:50:03;20.30;99.90
30174;DHT22;16985;50.814;8.530;2022-08-01T06:52:30;20.40;99.90
30174;DHT22;16985;50.814;8.530;2022-08-01T06:54:56;20.50;99.90
30174;DHT22;16985;50.814;8.530;2022-08-01T06:57:22;20.50;99.90
30174;DHT22;16985;50.814;8.530;2022-08-01T06:59:47;20.50;99.90
30174;DHT22;16985;50.814;8.530;2022-08-01T07:02:13;20.50;99.90
30174;DHT22;16985;50.814;8.530;2022-08-01T07:04:39;20.50;99.90
30174;DHT22;16985;50.814;8.530;2022-08-01T07:07:05;20.50;99.90
30174;DHT22;16985;50.814;8.530;2022-08-01T07:09:30;20.50;99.90
30174;DHT22;16985;50.814;8.530;2022-08-01T07:11:56;20.50;99.90
30174;DHT22;16985;50.814;8.530;2022-08-01T07:14:23;20.50;99.90
30174;DHT22;16985;50.814;8.530;2022-08-01T07:16:50;20.60;99.90
30174;DHT22;16985;50.814;8.530;2022-08-01T07:19:16;20.60;99.90
30174;DHT22;16985;50.814;8.530;2022-08-01T07:21:42;20.60;99.90
30174;DHT22;16985;50.814;8.530;2022-08-01T07:24:10;20.70;99.90
30174;DHT22;16985;50.814;8.530;2022-08-01T07:26:39;20.70;99.90
30174;DHT22;16985;50.814;8.530;2022-08-01T07:29:05;20.70;99.90
30174;DHT22;16985;50.814;8.530;2022-08-01T07:31:31;20.80;99.90
30174;DHT22;16985;50.814;8.530;2022-08-01T07:33:57;20.90;99.90
30174;DHT22;16985;50.814;8.530;2022-08-01T07:36:23;20.90;99.90
30174;DHT22;16985;50.814;8.530;2022-08-01T07:38:51;21.00;99.90
30174;DHT22;16985;50.814;8.530;2022-08-01T07:41:16;21.00;99.90
30174;DHT22;16985;50.814;8.530;2022-08-01T07:43:42;21.10;99.90
30174;DHT22;16985;50.814;8.530;2022-08-01T07:46:08;21.10;99.10
30174;DHT22;16985;50.814;8.530;2022-08-01T07:48:34;21.20;98.90
30174;DHT22;16985;50.814;8.530;2022-08-01T07:51:00;21.20;98.90
30174;DHT22;16985;50.814;8.530;2022-08-01T07:53:26;21.30;98.90
30174;DHT22;16985;50.814;8.530;2022-08-01T07:55:52;21.30;98.90
30174;DHT22;16985;50.814;8.530;2022-08-01T07:58:18;21.40;98.40
30174;DHT22;16985;50.814;8.530;2022-08-01T08:00:44;21.50;97.80
30174;DHT22;16985;50.814;8.530;2022-08-01T08:03:09;21.50;97.70
30174;DHT22;16985;50.814;8.530;2022-08-01T08:05:36;21.60;97.50
30174;DHT22;16985;50.814;8.530;2022-08-01T08:08:05;21.60;97.40
30174;DHT22;16985;50.814;8.530;2022-08-01T08:10:32;21.60;97.70
30174;DHT22;16985;50.814;8.530;2022-08-01T08:12:58;21.60;97.60
30174;DHT22;16985;50.814;8.530;2022-08-01T08:15:24;21.60;97.00
30174;DHT22;16985;50.814;8.530;2022-08-01T08:17:50;21.60;96.70
30174;DHT22;16985;50.814;8.530;2022-08-01T08:20:16;21.60;96.30
30174;DHT22;16985;50.814;8.530;2022-08-01T08:22:41;21.60;95.80
30174;DHT22;16985;50.814;8.530;2022-08-01T08:25:08;21.50;95.70
30174;DHT22;16985;50.814;8.530;2022-08-01T08:27:35;21.50;95.90
30174;DHT22;16985;50.814;8.530;2022-08-01T08:30:03;21.40;96.10
30174;DHT22;16985;50.814;8.530;2022-08-01T08:32:32;21.40;96.10
30174;DHT22;16985;50.814;8.530;2022-08-01T08:34:59;21.40;96.10
30174;DHT22;16985;50.814;8.530;2022-08-01T08:37:24;21.40;96.40
30174;DHT22;16985;50.814;8.530;2022-08-01T08:39:50;21.30;96.70
30174;DHT22;16985;50.814;8.530;2022-08-01T08:42:16;21.30;96.60
30174;DHT22;16985;50.814;8.530;2022-08-01T08:44:42;21.40;97.00
30174;DHT22;16985;50.814;8.530;2022-08-01T08:47:11;21.40;96.90
30174;DHT22;16985;50.814;8.530;2022-08-01T08:49:38;21.40;96.80
30174;DHT22;16985;50.814;8.530;2022-08-01T08:52:05;21.30;96.80
30174;DHT22;16985;50.814;8.530;2022-08-01T08:54:32;21.40;97.10
30174;DHT22;16985;50.814;8.530;2022-08-01T08:57:00;21.40;97.20
30174;DHT22;16985;50.814;8.530;2022-08-01T08:59:27;21.40;96.90
30174;DHT22;16985;50.814;8.530;2022-08-01T09:01:53;21.50;96.40
30174;DHT22;16985;50.814;8.530;2022-08-01T09:04:23;21.60;97.60
30174;DHT22;16985;50.814;8.530;2022-08-01T09:06:50;21.60;98.20
30174;DHT22;16985;50.814;8.530;2022-08-01T09:09:16;21.70;97.70
30174;DHT22;16985;50.814;8.530;2022-08-01T09:11:42;21.90;98.30
30174;DHT22;16985;50.814;8.530;2022-08-01T09:14:17;22.00;98.30
30174;DHT22;16985;50.814;8.530;2022-08-01T09:17:06;22.10;98.20
30174;DHT22;16985;50.814;8.530;2022-08-01T09:19:39;22.10;97.60
30174;DHT22;16985;50.814;8.530;2022-08-01T09:22:17;22.20;97.50
30174;DHT22;16985;50.814;8.530;2022-08-01T09:27:32;22.50;96.10
30174;DHT22;16985;50.814;8.530;2022-08-01T09:30:09;22.60;96.00
30174;DHT22;16985;50.814;8.530;2022-08-01T09:32:36;22.70;95.60
30174;DHT22;16985;50.814;8.530;2022-08-01T09:35:26;22.80;94.80
30174;DHT22;16985;50.814;8.530;2022-08-01T09:38:14;22.90;93.50
30174;DHT22;16985;50.814;8.530;2022-08-01T09:43:13;23.00;92.00
30174;DHT22;16985;50.814;8.530;2022-08-01T09:45:39;23.00;91.90
30174;DHT22;16985;50.814;8.530;2022-08-01T09:48:08;23.00;91.50
30174;DHT22;16985;50.814;8.530;2022-08-01T09:50:43;23.10;91.00
30174;DHT22;16985;50.814;8.530;2022-08-01T09:53:11;23.20;90.70
30174;DHT22;16985;50.814;8.530;2022-08-01T09:55:38;23.30;89.50
30174;DHT22;16985;50.814;8.530;2022-08-01T09:58:05;23.40;87.70
30174;DHT22;16985;50.814;8.530;2022-08-01T10:00:32;23.60;87.50
30174;DHT22;16985;50.814;8.530;2022-08-01T10:02:59;23.80;87.00
30174;DHT22;16985;50.814;8.530;2022-08-01T10:05:34;23.90;84.90
30174;DHT22;16985;50.814;8.530;2022-08-01T10:08:03;24.10;83.10
30174;DHT22;16985;50.814;8.530;2022-08-01T10:10:31;24.30;82.50
30174;DHT22;16985;50.814;8.530;2022-08-01T10:12:58;24.50;82.20
30174;DHT22;16985;50.814;8.530;2022-08-01T10:15:28;24.70;82.00
30174;DHT22;16985;50.814;8.530;2022-08-01T10:17:56;24.90;81.40
30174;DHT22;16985;50.814;8.530;2022-08-01T10:20:29;24.90;80.50
30174;DHT22;16985;50.814;8.530;2022-08-01T10:23:03;24.90;80.00
30174;DHT22;16985;50.814;8.530;2022-08-01T10:25:34;24.90;79.50
30174;DHT22;16985;50.814;8.530;2022-08-01T10:28:10;24.90;79.40
30174;DHT22;16985;50.814;8.530;2022-08-01T10:30:42;24.90;79.40
30174;DHT22;16985;50.814;8.530;2022-08-01T10:33:08;25.00;79.10
30174;DHT22;16985;50.814;8.530;2022-08-01T10:35:34;25.10;77.60
30174;DHT22;16985;50.814;8.530;2022-08-01T10:38:00;25.30;77.30
30174;DHT22;16985;50.814;8.530;2022-08-01T10:40:27;25.40;77.20
30174;DHT22;16985;50.814;8.530;2022-08-01T10:42:53;25.60;76.50
30174;DHT22;16985;50.814;8.530;2022-08-01T10:45:19;25.70;74.20
30174;DHT22;16985;50.814;8.530;2022-08-01T10:50:48;25.90;72.80
30174;DHT22;16985;50.814;8.530;2022-08-01T10:53:20;26.00;72.90
30174;DHT22;16985;50.814;8.530;2022-08-01T10:55:52;26.00;72.70
30174;DHT22;16985;50.814;8.530;2022-08-01T10:58:36;26.10;72.30
30174;DHT22;16985;50.814;8.530;2022-08-01T11:09:04;26.30;71.60
30174;DHT22;16985;50.814;8.530;2022-08-01T11:12:00;26.30;71.80
30174;DHT22;16985;50.814;8.530;2022-08-01T11:14:27;26.30;72.10
30174;DHT22;16985;50.814;8.530;2022-08-01T11:16:53;26.30;72.30
30174;DHT22;16985;50.814;8.530;2022-08-01T11:19:19;26.40;72.70
30174;DHT22;16985;50.814;8.530;2022-08-01T11:32:46;27.00;69.70
30174;DHT22;16985;50.814;8.530;2022-08-01T11:35:14;27.10;69.20
30174;DHT22;16985;50.814;8.530;2022-08-01T11:37:40;27.30;69.10
30174;DHT22;16985;50.814;8.530;2022-08-01T11:40:16;27.40;68.70
30174;DHT22;16985;50.814;8.530;2022-08-01T11:42:43;27.50;67.80
30174;DHT22;16985;50.814;8.530;2022-08-01T11:45:09;27.70;66.60
30174;DHT22;16985;50.814;8.530;2022-08-01T11:47:48;27.70;64.00
30174;DHT22;16985;50.814;8.530;2022-08-01T11:50:35;27.80;63.70
30174;DHT22;16985;50.814;8.530;2022-08-01T11:53:04;27.90;62.90
30174;DHT22;16985;50.814;8.530;2022-08-01T11:55:31;28.00;62.20
30174;DHT22;16985;50.814;8.530;2022-08-01T11:58:05;28.10;61.80
30174;DHT22;16985;50.814;8.530;2022-08-01T12:00:33;28.20;60.90
30174;DHT22;16985;50.814;8.530;2022-08-01T12:03:01;28.20;61.40
30174;DHT22;16985;50.814;8.530;2022-08-01T12:05:33;28.10;61.80
30174;DHT22;16985;50.814;8.530;2022-08-01T12:08:00;28.00;61.90
30174;DHT22;16985;50.814;8.530;2022-08-01T12:10:29;27.90;62.00
30174;DHT22;16985;50.814;8.530;2022-08-01T12:13:02;27.90;61.90
30174;DHT22;16985;50.814;8.530;2022-08-01T12:15:35;28.00;60.20
30174;DHT22;16985;50.814;8.530;2022-08-01T12:18:04;27.80;59.00
30174;DHT22;16985;50.814;8.530;2022-08-01T12:20:36;27.90;59.00
30174;DHT22;16985;50.814;8.530;2022-08-01T12:23:06;27.80;59.70
30174;DHT22;16985;50.814;8.530;2022-08-01T12:25:34;27.80;59.80
30174;DHT22;16985;50.814;8.530;2022-08-01T12:28:05;27.80;60.30
30174;DHT22;16985;50.814;8.530;2022-08-01T12:30:33;27.80;59.90
30174;DHT22;16985;50.814;8.530;2022-08-01T12:33:00;27.80;60.10
30174;DHT22;16985;50.814;8.530;2022-08-01T12:35:29;27.90;60.20
30174;DHT22;16985;50.814;8.530;2022-08-01T12:38:02;28.00;60.60
30174;DHT22;16985;50.814;8.530;2022-08-01T12:40:34;28.20;60.50
30174;DHT22;16985;50.814;8.530;2022-08-01T12:43:06;28.40;59.90
30174;DHT22;16985;50.814;8.530;2022-08-01T12:45:34;28.50;59.50
30174;DHT22;16985;50.814;8.530;2022-08-01T12:48:01;28.50;58.50
30174;DHT22;16985;50.814;8.530;2022-08-01T12:50:29;28.70;58.40
30174;DHT22;16985;50.814;8.530;2022-08-01T12:52:57;28.80;57.60
30174;DHT22;16985;50.814;8.530;2022-08-01T12:55:24;28.80;57.00
30174;DHT22;16985;50.814;8.530;2022-08-01T12:58:07;29.00;57.00
30174;DHT22;16985;50.814;8.530;2022-08-01T13:00:36;29.10;55.90
30174;DHT22;16985;50.814;8.530;2022-08-01T13:03:13;29.00;55.40
30174;DHT22;16985;50.814;8.530;2022-08-01T13:05:47;29.10;55.40
30174;DHT22;16985;50.814;8.530;2022-08-01T13:08:29;29.10;55.60
30174;DHT22;16985;50.814;8.530;2022-08-01T13:11:10;29.20;55.20
30174;DHT22;16985;50.814;8.530;2022-08-01T13:13:47;29.30;55.20
30174;DHT22;16985;50.814;8.530;2022-08-01T13:16:16;29.30;54.90
30174;DHT22;16985;50.814;8.530;2022-08-01T13:18:51;29.10;54.10
30174;DHT22;16985;50.814;8.530;2022-08-01T13:21:23;29.10;54.00
30174;DHT22;16985;50.814;8.530;2022-08-01T13:24:10;29.30;54.60
30174;DHT22;16985;50.814;8.530;2022-08-01T13:26:44;29.30;54.90
30174;DHT22;16985;50.814;8.530;2022-08-01T13:29:19;29.40;54.60
30174;DHT22;16985;50.814;8.530;2022-08-01T13:31:46;29.50;54.00
30174;DHT22;16985;50.814;8.530;2022-08-01T13:34:12;29.60;54.30
30174;DHT22;16985;50.814;8.530;2022-08-01T13:36:39;29.70;54.30
30174;DHT22;16985;50.814;8.530;2022-08-01T13:39:06;29.70;53.80
30174;DHT22;16985;50.814;8.530;2022-08-01T13:41:51;29.70;53.70
30174;DHT22;16985;50.814;8.530;2022-08-01T13:44:17;29.70;54.30
30174;DHT22;16985;50.814;8.530;2022-08-01T13:46:44;29.60;54.30
30174;DHT22;16985;50.814;8.530;2022-08-01T13:49:11;29.60;54.30
30174;DHT22;16985;50.814;8.530;2022-08-01T13:51:38;29.50;54.60
30174;DHT22;16985;50.814;8.530;2022-08-01T13:54:04;29.60;54.70
30174;DHT22;16985;50.814;8.530;2022-08-01T13:56:31;29.70;54.40
30174;DHT22;16985;50.814;8.530;2022-08-01T13:58:57;29.60;54.70
30174;DHT22;16985;50.814;8.530;2022-08-01T14:01:23;29.60;54.60
30174;DHT22;16985;50.814;8.530;2022-08-01T14:03:50;29.50;54.50
30174;DHT22;16985;50.814;8.530;2022-08-01T14:06:17;29.40;54.00
30174;DHT22;16985;50.814;8.530;2022-08-01T14:08:46;29.40;54.20
30174;DHT22;16985;50.814;8.530;2022-08-01T14:11:12;29.30;53.10
30174;DHT22;16985;50.814;8.530;2022-08-01T14:13:38;29.30;53.60
30174;DHT22;16985;50.814;8.530;2022-08-01T14:16:05;29.20;54.10
30174;DHT22;16985;50.814;8.530;2022-08-01T14:18:32;29.20;53.90
30174;DHT22;16985;50.814;8.530;2022-08-01T14:20:58;29.20;54.10
30174;DHT22;16985;50.814;8.530;2022-08-01T14:23:23;29.30;54.00
30174;DHT22;16985;50.814;8.530;2022-08-01T14:25:49;29.20;54.40
30174;DHT22;16985;50.814;8.530;2022-08-01T14:28:15;29.20;54.40
30174;DHT22;16985;50.814;8.530;2022-08-01T14:30:41;29.30;54.30
30174;DHT22;16985;50.814;8.530;2022-08-01T14:33:08;29.40;53.80
30174;DHT22;16985;50.814;8.530;2022-08-01T14:35:37;29.40;53.70
30174;DHT22;16985;50.814;8.530;2022-08-01T14:38:03;29.40;53.20
30174;DHT22;16985;50.814;8.530;2022-08-01T14:40:29;29.40;53.30
30174;DHT22;16985;50.814;8.530;2022-08-01T14:42:55;29.50;53.20
30174;DHT22;16985;50.814;8.530;2022-08-01T14:45:21;29.50;53.00
30174;DHT22;16985;50.814;8.530;2022-08-01T14:47:47;29.40;53.10
30174;DHT22;16985;50.814;8.530;2022-08-01T14:50:14;29.40;53.20
30174;DHT22;16985;50.814;8.530;2022-08-01T14:52:42;29.30;53.60
30174;DHT22;16985;50.814;8.530;2022-08-01T14:55:09;29.20;54.80
30174;DHT22;16985;50.814;8.530;2022-08-01T14:57:36;29.00;54.40
30174;DHT22;16985;50.814;8.530;2022-08-01T15:00:05;28.90;54.20
30174;DHT22;16985;50.814;8.530;2022-08-01T15:02:35;28.70;54.40
30174;DHT22;16985;50.814;8.530;2022-08-01T15:05:01;28.60;55.00
30174;DHT22;16985;50.814;8.530;2022-08-01T15:07:27;28.50;55.40
30174;DHT22;16985;50.814;8.530;2022-08-01T15:09:53;28.40;55.80
30174;DHT22;16985;50.814;8.530;2022-08-01T15:12:19;28.30;56.20
30174;DHT22;16985;50.814;8.530;2022-08-01T15:14:44;28.20;56.30
30174;DHT22;16985;50.814;8.530;2022-08-01T15:17:33;28.20;56.30
30174;DHT22;16985;50.814;8.530;2022-08-01T15:20:04;28.30;56.60
30174;DHT22;16985;50.814;8.530;2022-08-01T15:22:32;28.30;56.40
30174;DHT22;16985;50.814;8.530;2022-08-01T15:25:00;28.30;56.40
30174;DHT22;16985;50.814;8.530;2022-08-01T15:27:27;28.30;56.40
30174;DHT22;16985;50.814;8.530;2022-08-01T15:29:54;28.30;56.20
30174;DHT22;16985;50.814;8.530;2022-08-01T15:32:20;28.30;56.00
30174;DHT22;16985;50.814;8.530;2022-08-01T15:34:46;28.30;56.00
30174;DHT22;16985;50.814;8.530;2022-08-01T15:37:12;28.30;56.40
30174;DHT22;16985;50.814;8.530;2022-08-01T15:39:40;28.30;56.60
30174;DHT22;16985;50.814;8.530;2022-08-01T15:42:09;28.30;56.50
30174;DHT22;16985;50.814;8.530;2022-08-01T15:44:36;28.30;56.60
30174;DHT22;16985;50.814;8.530;2022-08-01T15:47:03;28.40;56.50
30174;DHT22;16985;50.814;8.530;2022-08-01T15:49:30;28.40;55.80
30174;DHT22;16985;50.814;8.530;2022-08-01T15:51:56;28.40;55.80
30174;DHT22;16985;50.814;8.530;2022-08-01T15:54:23;28.40;56.10
30174;DHT22;16985;50.814;8.530;2022-08-01T15:56:49;28.40;56.80
30174;DHT22;16985;50.814;8.530;2022-08-01T15:59:15;28.30;56.30
30174;DHT22;16985;50.814;8.530;2022-08-01T16:01:42;28.20;56.40
30174;DHT22;16985;50.814;8.530;2022-08-01T16:04:07;28.20;56.80
30174;DHT22;16985;50.814;8.530;2022-08-01T16:06:34;28.10;57.00
30174;DHT22;16985;50.814;8.530;2022-08-01T16:09:01;28.00;57.10
30174;DHT22;16985;50.814;8.530;2022-08-01T16:11:28;27.90;57.20
30174;DHT22;16985;50.814;8.530;2022-08-01T16:13:54;27.80;57.50
30174;DHT22;16985;50.814;8.530;2022-08-01T16:16:20;27.60;57.70
30174;DHT22;16985;50.814;8.530;2022-08-01T16:18:46;27.50;58.00
30174;DHT22;16985;50.814;8.530;2022-08-01T16:21:13;27.40;58.20